Time;durP1;ratioP1;P1;durP2;ratioP2;P2;SDS_P1;SDS_P2;PMS_P1;PMS_P2;Temp;Humidity;BMP_temperature;BMP_pressure;BME280_temperature;BME280_humidity;BME280_pressure;Samples;Min_cycle;Max_cycle;Signal;HPM_P1;HPM_P2
2021/06/02 00:02:15;;;;;;;3.62;1.67;;;;;;;12.43;59.25;100606.19;1598524;88;21082;-45
2021/06/02 00:04:47;;;;;;;2.08;1.42;;;;;;;12.43;58.74;100597.31;1600898;88;21040;-41
2021/06/02 00:07:24;;;;;;;5.45;1.70;;;;;;;12.43;58.40;100606.67;1601612;88;20985;-41
2021/06/02 00:09:52;;;;;;;2.25;1.40;;;;;;;12.43;58.65;100603.99;1611093;87;21052;-45
2021/06/02 00:12:21;;;;;;;3.42;1.57;;;;;;;12.42;58.62;100600.44;1608580;86;21401;-44
2021/06/02 00:14:48;;;;;;;2.05;1.40;;;;;;;12.40;58.47;100599.70;1612580;87;21074;-45
2021/06/02 00:17:14;;;;;;;4.67;1.57;;;;;;;12.40;58.63;100593.47;1705675;82;21060;-41
2021/06/02 00:19:42;;;;;;;3.77;1.70;;;;;;;12.39;57.99;100595.78;1698593;82;21073;-42
2021/06/02 00:22:08;;;;;;;20.85;2.00;;;;;;;12.39;57.94;100597.11;1697904;82;21560;-42
2021/06/02 00:24:36;;;;;;;2.08;1.37;;;;;;;12.42;58.04;100597.77;1700369;82;21567;-43
2021/06/02 00:27:05;;;;;;;1.77;1.20;;;;;;;12.43;58.04;100597.31;1703467;82;21036;-44
2021/06/02 00:29:34;;;;;;;2.92;1.15;;;;;;;12.41;57.61;100588.52;1704055;82;21021;-43
2021/06/02 00:32:03;;;;;;;3.60;2.05;;;;;;;12.40;57.61;100585.45;1700058;82;21123;-42
2021/06/02 00:34:30;;;;;;;4.30;1.65;;;;;;;12.38;57.40;100586.91;1703041;82;21028;-43
2021/06/02 00:36:58;;;;;;;4.92;1.72;;;;;;;12.36;57.56;100582.13;1702913;83;21539;-42
2021/06/02 00:39:27;;;;;;;2.60;1.50;;;;;;;12.35;57.66;100579.08;1703811;82;21100;-42
2021/06/02 00:41:54;;;;;;;1.87;1.17;;;;;;;12.35;57.55;100583.09;1702878;82;21310;-42
2021/06/02 00:44:20;;;;;;;2.20;1.52;;;;;;;12.35;57.80;100576.41;1702921;82;21417;-43
2021/06/02 00:46:49;;;;;;;2.00;1.52;;;;;;;12.36;57.47;100574.59;1708149;82;21001;-43
2021/06/02 00:49:23;;;;;;;2.37;1.52;;;;;;;12.35;57.72;100575.08;1703519;82;21630;-42
2021/06/02 00:51:56;;;;;;;3.80;1.77;;;;;;;12.36;57.88;100562.55;1698348;82;21089;-43
2021/06/02 00:54:26;;;;;;;4.40;1.25;;;;;;;12.40;57.97;100565.39;1680332;83;21033;-43
2021/06/02 00:56:58;;;;;;;5.58;2.10;;;;;;;12.41;58.11;100559.10;1681637;83;21046;-43
2021/06/02 00:59:44;;;;;;;2.27;1.40;;;;;;;12.40;57.96;100565.39;1679129;83;21049;-43
2021/06/02 01:02:18;;;;;;;4.35;1.90;;;;;;;12.39;57.92;100561.02;1687149;83;21651;-44
2021/06/02 01:04:45;;;;;;;4.33;1.60;;;;;;;12.37;58.06;100563.77;1685235;83;21018;-44
2021/06/02 01:07:12;;;;;;;3.87;1.47;;;;;;;12.34;58.18;100573.34;1688410;83;21041;-46
2021/06/02 01:09:48;;;;;;;3.58;1.90;;;;;;;12.34;58.50;100555.95;1685354;83;21021;-45
2021/06/02 01:12:17;;;;;;;4.20;1.62;;;;;;;12.34;58.67;100565.31;1686784;83;21043;-47
2021/06/02 01:14:45;;;;;;;1.90;1.37;;;;;;;12.33;58.91;100560.94;1686576;83;21079;-46
2021/06/02 01:17:16;;;;;;;5.62;2.33;;;;;;;12.31;59.08;100562.84;1689592;83;21003;-45
2021/06/02 01:19:44;;;;;;;6.55;1.40;;;;;;;12.30;59.00;100554.45;1688479;83;21013;-45
2021/06/02 01:22:11;;;;;;;3.72;1.77;;;;;;;12.28;58.97;100563.91;1686848;83;21551;-46
2021/06/02 01:24:38;;;;;;;2.70;1.52;;;;;;;12.27;59.02;100571.55;1685804;83;21029;-45
2021/06/02 01:27:08;;;;;;;3.70;2.35;;;;;;;12.27;59.14;100563.98;1687981;83;21041;-45
2021/06/02 01:29:41;;;;;;;5.72;1.82;;;;;;;12.27;59.13;100570.22;1687409;83;21532;-46
2021/06/02 01:32:25;;;;;;;4.33;1.82;;;;;;;12.28;59.19;100565.23;1687588;83;21045;-45
2021/06/02 01:35:24;;;;;;;3.95;1.52;;;;;;;12.30;59.22;100572.69;1688418;83;21053;-46
2021/06/02 01:38:12;;;;;;;5.37;1.50;;;;;;;12.33;58.80;100576.50;1693722;83;21635;-44
2021/06/02 01:41:18;;;;;;;2.47;1.50;;;;;;;12.31;58.74;100570.87;1691202;83;21021;-45
2021/06/02 01:44:20;;;;;;;4.12;1.85;;;;;;;12.28;58.76;100571.92;1684093;83;21164;-45
2021/06/02 01:47:32;;;;;;;3.30;1.77;;;;;;;12.26;58.91;100567.63;1683292;83;20986;-45
2021/06/02 01:50:14;;;;;;;;;;;;;;;12.20;58.84;100559.53;1691681;83;21023;-47
2021/06/02 01:53:15;;;;;;;4.28;2.90;;;;;;;12.18;59.06;100565.94;1692717;82;20185;-48
2021/06/02 01:56:19;;;;;;;2.45;1.52;;;;;;;12.15;59.40;100564.31;1702555;82;21511;-48
2021/06/02 01:59:25;;;;;;;2.75;1.60;;;;;;;12.16;59.50;100565.17;1703672;82;21049;-44
2021/06/02 02:02:49;;;;;;;3.25;2.10;;;;;;;12.15;59.29;100575.01;1706408;82;21543;-45
2021/06/02 02:06:06;;;;;;;2.75;1.80;;;;;;;12.15;59.59;100581.69;1706668;82;21041;-45
2021/06/02 02:08:59;;;;;;;5.50;1.92;;;;;;;12.15;59.60;100578.17;1641409;86;21093;-45
2021/06/02 02:11:35;;;;;;;4.58;1.75;;;;;;;12.14;59.61;100583.97;1561755;90;21088;-45
2021/06/02 02:14:33;;;;;;;3.72;1.70;;;;;;;12.12;59.46;100565.86;1561832;90;21555;-46
2021/06/02 02:17:23;;;;;;;7.80;2.22;;;;;;;12.10;59.41;100573.11;1559355;90;21076;-45
2021/06/02 02:20:26;;;;;;;2.25;1.70;;;;;;;12.11;59.67;100570.80;1489660;94;21084;-46
2021/06/02 02:23:20;;;;;;;5.40;1.70;;;;;;;12.08;59.67;100566.99;1490282;94;21164;-43
2021/06/02 02:26:37;;;;;;;7.42;2.50;;;;;;;12.07;59.84;100558.58;1490374;95;21083;-40
2021/06/02 02:29:33;;;;;;;4.17;1.77;;;;;;;12.04;59.70;100560.11;1491418;94;21128;-41
2021/06/02 02:32:46;;;;;;;4.22;2.27;;;;;;;12.03;59.80;100567.77;1491338;94;21068;-42
2021/06/02 02:35:33;;;;;;;4.60;1.82;;;;;;;12.01;59.95;100579.87;1505954;93;21218;-43
2021/06/02 02:38:23;;;;;;;4.85;1.50;;;;;;;12.01;60.17;100574.53;1491180;93;21088;-45
2021/06/02 02:41:05;;;;;;;4.08;1.67;;;;;;;12.03;60.01;100573.11;1531390;92;21059;-44
2021/06/02 02:43:59;;;;;;;2.77;1.80;;;;;;;12.03;60.01;100584.65;1529492;91;21536;-44
2021/06/02 02:46:38;;;;;;;3.60;1.80;;;;;;;12.02;60.41;100591.41;1529140;91;21705;-51
2021/06/02 02:49:54;;;;;;;3.17;1.47;;;;;;;12.02;60.50;100577.60;1600625;87;21125;-45
2021/06/02 02:53:02;;;;;;;4.40;1.30;;;;;;;12.01;60.42;100595.05;1605779;87;21036;-45
2021/06/02 02:55:37;;;;;;;2.37;1.60;;;;;;;11.99;60.57;100598.30;1595021;87;21615;-44
2021/06/02 02:58:28;;;;;;;3.12;1.77;;;;;;;11.98;60.84;100606.80;1675847;83;21012;-44
2021/06/02 03:01:04;;;;;;;1.65;1.40;;;;;;;11.96;60.60;100607.36;1686666;83;21042;-42
2021/06/02 03:03:41;;;;;;;3.42;1.52;;;;;;;11.95;60.75;100605.66;1688273;83;21050;-42
2021/06/02 03:06:17;;;;;;;4.17;1.87;;;;;;;11.97;60.87;100594.41;1691672;83;21516;-46
2021/06/02 03:09:05;;;;;;;2.37;1.50;;;;;;;11.99;60.69;100599.63;1684132;83;21005;-46
2021/06/02 03:11:46;;;;;;;5.40;1.90;;;;;;;11.96;60.61;100589.99;1658340;85;20999;-47
2021/06/02 03:14:21;;;;;;;4.35;1.92;;;;;;;11.94;60.71;100601.73;1638391;85;21009;-45
2021/06/02 03:17:02;;;;;;;4.75;2.10;;;;;;;11.94;61.17;100604.41;1694166;83;21873;-45
2021/06/02 03:20:11;;;;;;;4.08;1.82;;;;;;;11.96;60.93;100610.52;1667956;84;21626;-46
2021/06/02 03:23:10;;;;;;;3.08;1.70;;;;;;;11.96;61.37;100612.70;1692579;83;21040;-45
2021/06/02 03:25:53;;;;;;;2.35;1.57;;;;;;;11.94;61.15;100612.42;1695348;83;21021;-45
2021/06/02 03:28:59;;;;;;;5.10;2.00;;;;;;;11.91;61.36;100609.47;1673201;83;21029;-44
2021/06/02 03:31:47;;;;;;;3.65;1.70;;;;;;;11.94;61.32;100605.26;1693311;83;21021;-44
2021/06/02 03:34:48;;;;;;;3.58;1.80;;;;;;;11.96;61.35;100611.86;1696374;83;21013;-44
2021/06/02 03:37:59;;;;;;;2.70;1.50;;;;;;;11.96;61.45;100605.17;1639422;86;21070;-46
2021/06/02 03:40:55;;;;;;;3.50;1.80;;;;;;;11.95;61.42;100612.82;1657208;84;21399;-43
2021/06/02 03:43:27;;;;;;;2.92;1.90;;;;;;;11.91;61.37;100605.45;1687498;83;21029;-43
2021/06/02 03:46:25;;;;;;;4.62;1.80;;;;;;;11.90;61.62;100598.41;1684060;83;21002;-42
2021/06/02 03:49:31;;;;;;;3.12;1.92;;;;;;;11.90;61.67;100602.41;1629623;86;21178;-43
2021/06/02 03:52:05;;;;;;;3.72;1.70;;;;;;;11.95;62.36;100599.46;1625924;86;21045;-44
2021/06/02 03:54:38;;;;;;;4.05;1.80;;;;;;;11.96;61.50;100592.66;1625975;86;21025;-44
2021/06/02 03:57:42;;;;;;;6.20;1.90;;;;;;;11.92;61.40;100596.50;1626898;86;21067;-44
2021/06/02 04:00:20;;;;;;;2.67;1.72;;;;;;;11.88;61.81;100594.48;1576411;89;21053;-44
2021/06/02 04:03:06;;;;;;;3.08;1.50;;;;;;;11.87;62.40;100601.28;1577320;89;21065;-42
2021/06/02 04:05:56;;;;;;;5.03;1.70;;;;;;;11.86;62.95;100606.19;1580328;89;21120;-41
2021/06/02 04:08:42;;;;;;;3.17;2.00;;;;;;;11.84;63.41;100610.30;1576023;89;21080;-47
2021/06/02 04:11:18;;;;;;;2.87;1.57;;;;;;;11.81;62.85;100603.80;1577313;89;21660;-42
2021/06/02 04:13:57;;;;;;;3.62;1.77;;;;;;;11.77;63.27;100604.07;1575339;89;21061;-44
2021/06/02 04:16:37;;;;;;;4.22;1.60;;;;;;;11.74;63.93;100602.45;1575359;89;21058;-42
2021/06/02 04:19:13;;;;;;;3.00;2.00;;;;;;;11.73;64.17;100595.88;1579925;89;21105;-41
2021/06/02 04:21:43;;;;;;;3.05;2.00;;;;;;;11.73;64.37;100588.72;1578945;89;21057;-42
2021/06/02 04:24:14;;;;;;;6.87;2.15;;;;;;;11.70;64.86;100599.12;1577569;89;21682;-40
2021/06/02 04:26:40;;;;;;;3.02;1.77;;;;;;;11.66;65.56;100590.05;1605273;88;21627;-41
2021/06/02 04:29:10;;;;;;;4.75;1.80;;;;;;;11.64;66.39;100590.16;1603985;88;21081;-48
2021/06/02 04:31:54;;;;;;;4.92;2.22;;;;;;;11.61;67.37;100593.47;1668114;83;21029;-44
2021/06/02 04:34:21;;;;;;;3.80;2.00;;;;;;;11.58;67.72;100591.85;1688455;83;21346;-47
2021/06/02 04:36:51;;;;;;;4.15;2.00;;;;;;;11.57;68.36;100598.16;1658072;85;21040;-44
2021/06/02 04:39:19;;;;;;;3.52;1.40;;;;;;;11.56;67.70;100602.24;1669248;84;21026;-45
2021/06/02 04:41:47;;;;;;;2.22;1.50;;;;;;;11.57;68.51;100606.65;1689598;84;21053;-43
2021/06/02 04:44:15;;;;;;;2.97;1.93;;;;;;;11.59;68.74;100602.05;1688242;83;21029;-42
2021/06/02 04:46:44;;;;;;;2.60;1.85;;;;;;;11.59;68.20;100605.61;1688838;84;21479;-54
2021/06/02 04:49:14;;;;;;;;;;;;;;;11.61;67.85;100609.50;1691818;83;21113;-44
2021/06/02 04:52:02;;;;;;;5.70;2.27;;;;;;;11.60;68.37;100612.66;1689551;84;20186;-44
2021/06/02 04:55:03;;;;;;;4.65;1.60;;;;;;;11.58;68.46;100610.55;1688952;83;21073;-48
2021/06/02 04:57:42;;;;;;;4.53;1.90;;;;;;;11.55;68.36;100610.73;1662241;84;21056;-43
2021/06/02 05:00:58;;;;;;;3.80;2.05;;;;;;;11.51;69.58;100612.34;1686611;83;21042;-46
2021/06/02 05:03:45;;;;;;;3.80;1.80;;;;;;;11.51;70.18;100624.36;1687675;83;21049;-43
2021/06/02 05:06:40;;;;;;;4.78;2.05;;;;;;;11.53;70.73;100613.12;1685775;83;21032;-42
2021/06/02 05:10:03;;;;;;;7.00;2.00;;;;;;;11.54;71.17;100610.81;1686643;83;21571;-45
2021/06/02 05:13:12;;;;;;;3.55;2.00;;;;;;;11.54;70.81;100616.16;1682510;83;21573;-44
2021/06/02 05:16:08;;;;;;;3.67;2.47;;;;;;;11.54;70.85;100615.70;1686691;83;21049;-49
2021/06/02 05:19:19;;;;;;;4.95;1.80;;;;;;;11.55;71.30;100617.41;1683439;83;21085;-45
2021/06/02 05:22:20;;;;;;;4.70;2.10;;;;;;;11.56;70.95;100615.59;1684117;83;21018;-43
2021/06/02 05:25:15;;;;;;;5.15;2.08;;;;;;;11.56;71.17;100621.79;1691539;83;20999;-41
2021/06/02 05:28:13;;;;;;;6.25;2.20;;;;;;;11.55;69.53;100617.90;1684184;82;21006;-45
2021/06/02 05:31:07;;;;;;;5.50;1.98;;;;;;;11.55;69.44;100617.90;1684556;83;21076;-42
2021/06/02 05:34:08;;;;;;;3.37;1.80;;;;;;;11.54;69.43;100621.05;1688287;83;21006;-46
2021/06/02 05:37:10;;;;;;;2.55;1.65;;;;;;;11.55;69.68;100612.55;1683176;83;21025;-45
2021/06/02 05:40:05;;;;;;;5.10;2.30;;;;;;;11.56;70.02;100623.13;1687065;83;21556;-43
2021/06/02 05:43:28;;;;;;;4.78;1.75;;;;;;;11.58;69.36;100616.37;1616209;86;21087;-41
2021/06/02 05:46:17;;;;;;;3.85;2.05;;;;;;;11.61;69.30;100617.03;1613629;86;21029;-43
2021/06/02 05:49:09;;;;;;;5.15;1.75;;;;;;;11.62;69.38;100616.09;1612948;86;21197;-44
2021/06/02 05:52:26;;;;;;;6.53;2.65;;;;;;;11.65;68.95;100623.06;1532168;91;21121;-44
2021/06/02 05:55:13;;;;;;;4.85;2.42;;;;;;;11.66;68.91;100622.95;1548194;91;21117;-48
2021/06/02 05:57:54;;;;;;;5.30;1.70;;;;;;;11.70;68.56;100624.98;1553772;91;21076;-52
2021/06/02 06:01:01;;;;;;;3.35;2.05;;;;;;;11.76;69.19;100631.75;1550109;91;21041;-43
2021/06/02 06:03:50;;;;;;;3.40;2.10;;;;;;;11.83;69.07;100633.10;1550464;91;21067;-45
2021/06/02 06:06:41;;;;;;;3.10;2.05;;;;;;;11.85;68.12;100641.89;1551181;91;21094;-41
2021/06/02 06:09:54;;;;;;;4.67;1.60;;;;;;;11.90;68.60;100631.80;1551278;90;21073;-50
2021/06/02 06:13:13;;;;;;;2.95;1.67;;;;;;;11.93;68.08;100633.43;1548363;90;21113;-42
2021/06/02 06:15:56;;;;;;;4.65;1.45;;;;;;;11.94;67.77;100635.14;1551005;90;21597;-43
2021/06/02 06:18:46;;;;;;;;;;;;;;;11.98;68.17;100631.33;1552812;91;21069;-44
2021/06/02 06:21:20;;;;;;;;;;;;;;;12.00;67.77;100632.10;1601684;88;20193;-44
2021/06/02 06:24:00;;;;;;;5.37;2.12;;;;;;;11.99;67.54;100626.36;1555448;90;20318;-43
2021/06/02 06:26:50;;;;;;;6.37;1.70;;;;;;;11.99;67.42;100620.53;1504257;94;21045;-43
2021/06/02 06:29:45;;;;;;;4.47;2.65;;;;;;;12.03;67.43;100627.89;1533530;91;21096;-42
2021/06/02 06:32:55;;;;;;;8.25;1.72;;;;;;;12.07;67.88;100623.61;1544692;91;21153;-50
2021/06/02 06:35:44;;;;;;;4.92;1.82;;;;;;;12.11;67.39;100619.77;1454088;97;21655;-45
2021/06/02 06:38:16;;;;;;;2.37;1.62;;;;;;;12.17;67.06;100625.69;1452566;97;21171;-43
2021/06/02 06:40:43;;;;;;;2.20;1.52;;;;;;;12.19;67.00;100623.78;1456444;97;21686;-45
2021/06/02 06:43:11;;;;;;;2.42;1.77;;;;;;;12.22;66.62;100627.13;1428070;99;21149;-43
2021/06/02 06:45:40;;;;;;;6.78;2.85;;;;;;;12.25;66.72;100620.73;1427154;99;21631;-44
2021/06/02 06:48:17;;;;;;;3.40;1.55;;;;;;;12.28;66.77;100625.39;1428274;99;21211;-43
2021/06/02 06:50:46;;;;;;;4.55;1.70;;;;;;;12.31;66.46;100620.33;1429248;99;21135;-45
2021/06/02 06:53:13;;;;;;;4.10;1.53;;;;;;;12.33;66.58;100613.93;1428207;99;21136;-45
2021/06/02 06:55:40;;;;;;;4.40;1.80;;;;;;;12.34;66.07;100610.28;1427061;99;21831;-48
2021/06/02 06:58:06;;;;;;;2.85;1.67;;;;;;;12.37;66.71;100615.92;1424151;99;21128;-44
2021/06/02 07:00:34;;;;;;;4.12;2.08;;;;;;;12.39;67.05;100620.70;1437549;94;21089;-46
2021/06/02 07:03:01;;;;;;;4.03;1.70;;;;;;;12.40;66.99;100609.06;1527415;90;21078;-42
2021/06/02 07:05:28;;;;;;;3.58;1.95;;;;;;;12.44;66.96;100608.38;1561462;90;21061;-46
2021/06/02 07:07:54;;;;;;;4.92;2.20;;;;;;;12.45;66.15;100604.27;1561442;90;21451;-43
2021/06/02 07:10:22;;;;;;;3.40;1.90;;;;;;;12.50;65.78;100603.98;1559288;90;21153;-43
2021/06/02 07:12:49;;;;;;;7.22;2.30;;;;;;;12.53;64.93;100607.31;1567851;89;21086;-48
2021/06/02 07:15:16;;;;;;;4.60;1.42;;;;;;;12.59;65.43;100603.85;1582063;89;21125;-46
2021/06/02 07:17:46;;;;;;;2.47;1.50;;;;;;;12.63;66.10;100612.07;1580742;89;21064;-46
2021/06/02 07:20:18;;;;;;;2.77;1.85;;;;;;;12.67;65.71;100619.77;1581185;88;21646;-44
2021/06/02 07:22:47;;;;;;;2.17;1.55;;;;;;;12.72;65.25;100602.09;1562438;89;21426;-50
2021/06/02 07:25:16;;;;;;;2.85;1.80;;;;;;;12.78;65.06;100601.70;1583232;89;21088;-49
2021/06/02 07:27:45;;;;;;;4.87;2.00;;;;;;;12.84;65.66;100603.11;1581872;88;21065;-48
2021/06/02 07:30:13;;;;;;;7.00;1.77;;;;;;;12.86;64.56;100603.38;1583085;89;21042;-45
2021/06/02 07:32:40;;;;;;;7.45;1.55;;;;;;;12.90;64.74;100606.25;1636815;84;21554;-45
2021/06/02 07:35:08;;;;;;;2.45;1.50;;;;;;;12.94;65.54;100605.06;1644482;85;21023;-46
2021/06/02 07:37:35;;;;;;;4.90;1.40;;;;;;;12.99;65.66;100608.78;1676779;84;21553;-47
2021/06/02 07:40:04;;;;;;;3.95;2.22;;;;;;;13.02;65.22;100610.39;1670257;84;21072;-45
2021/06/02 07:42:31;;;;;;;4.25;1.47;;;;;;;13.04;64.52;100605.31;1675559;84;21542;-45
2021/06/02 07:44:58;;;;;;;5.15;2.37;;;;;;;13.08;64.83;100606.84;1672610;84;21037;-44
2021/06/02 07:47:26;;;;;;;2.80;1.52;;;;;;;13.11;63.79;100620.02;1667243;84;21107;-48
2021/06/02 07:49:53;;;;;;;4.20;1.92;;;;;;;13.14;63.58;100622.48;1673128;84;21121;-44
2021/06/02 07:52:19;;;;;;;2.02;1.40;;;;;;;13.18;63.39;100615.97;1670252;84;21060;-42
2021/06/02 07:54:46;;;;;;;3.12;1.30;;;;;;;13.20;62.83;100616.73;1642239;85;21053;-42
2021/06/02 07:57:12;;;;;;;4.95;1.32;;;;;;;13.24;62.42;100621.88;1673286;84;21029;-42
2021/06/02 07:59:39;;;;;;;3.65;1.30;;;;;;;13.28;63.00;100621.59;1695420;82;21566;-46
2021/06/02 08:02:05;;;;;;;2.72;1.57;;;;;;;13.33;64.11;100631.52;1701471;84;21072;-41
2021/06/02 08:04:33;;;;;;;4.85;1.90;;;;;;;13.36;64.21;100625.95;1702206;83;21077;-44
2021/06/02 08:07:01;;;;;;;4.33;1.60;;;;;;;13.39;63.55;100619.52;1704111;83;21072;-45
2021/06/02 08:09:28;;;;;;;3.15;1.30;;;;;;;13.43;63.73;100626.40;1702904;82;21527;-45
2021/06/02 08:11:55;;;;;;;4.67;1.90;;;;;;;13.46;63.87;100620.83;1707498;82;21032;-46
2021/06/02 08:14:23;;;;;;;3.25;1.67;;;;;;;13.48;62.98;100620.70;1702691;82;21515;-41
2021/06/02 08:16:49;;;;;;;2.83;1.40;;;;;;;13.49;62.83;100625.97;1704397;83;21076;-43
2021/06/02 08:19:16;;;;;;;2.80;1.32;;;;;;;13.51;61.54;100616.02;1703374;82;21041;-41
2021/06/02 08:21:44;;;;;;;5.22;1.72;;;;;;;13.55;62.33;100617.98;1706097;83;21016;-41
2021/06/02 08:24:11;;;;;;;5.28;1.75;;;;;;;13.58;62.59;100618.66;1705646;82;21024;-41
2021/06/02 08:26:38;;;;;;;10.30;1.65;;;;;;;13.61;62.58;100617.09;1702220;84;21550;-41
2021/06/02 08:29:05;;;;;;;6.10;2.05;;;;;;;13.65;62.38;100623.08;1704807;82;21008;-41
2021/06/02 08:31:32;;;;;;;4.90;1.67;;;;;;;13.70;62.53;100619.60;1698654;83;21025;-41
2021/06/02 08:33:59;;;;;;;8.75;2.17;;;;;;;13.73;62.69;100624.74;1704424;82;20985;-40
2021/06/02 08:36:26;;;;;;;3.72;1.72;;;;;;;13.78;61.87;100629.78;1704883;82;21085;-40
2021/06/02 08:39:27;;;;;;;4.75;1.90;;;;;;;13.88;62.11;100624.16;1793311;79;23606;-40
2021/06/02 08:41:54;;;;;;;5.15;1.65;;;;;;;13.90;62.04;100632.95;1769461;80;20991;-40
2021/06/02 08:44:22;;;;;;;4.08;2.42;;;;;;;13.96;62.33;100630.33;1729785;81;21401;-43
2021/06/02 08:46:52;;;;;;;5.50;1.60;;;;;;;14.00;61.51;100634.52;1771986;80;21442;-42
2021/06/02 08:49:19;;;;;;;7.35;1.60;;;;;;;14.01;60.61;100634.42;1751675;79;21014;-44
2021/06/02 08:51:46;;;;;;;4.28;1.70;;;;;;;14.04;61.05;100638.22;1753091;79;20983;-42
2021/06/02 08:54:14;;;;;;;2.65;1.40;;;;;;;14.05;60.07;100637.23;1739073;79;21399;-43
2021/06/02 08:56:43;;;;;;;4.42;2.00;;;;;;;14.08;60.56;100636.16;1745923;79;20985;-46
2021/06/02 08:59:10;;;;;;;2.92;1.65;;;;;;;14.12;60.88;100628.29;1743935;79;21587;-44
2021/06/02 09:01:38;;;;;;;3.45;1.65;;;;;;;14.17;60.55;100640.03;1756547;79;20995;-43
2021/06/02 09:04:08;;;;;;;2.87;1.75;;;;;;;14.20;60.87;100638.47;1745787;79;20924;-42
2021/06/02 09:06:41;;;;;;;3.92;1.40;;;;;;;14.23;59.94;100625.69;1751323;79;21568;-44
2021/06/02 09:09:08;;;;;;;3.95;1.60;;;;;;;14.27;60.13;100629.02;1753009;79;21423;-44
2021/06/02 09:11:47;;;;;;;3.92;1.65;;;;;;;14.32;60.82;100632.72;1715657;80;20956;-44
2021/06/02 09:14:27;;;;;;;4.92;1.70;;;;;;;14.36;60.51;100628.34;1754623;81;21403;-45
2021/06/02 09:16:59;;;;;;;3.08;1.35;;;;;;;14.43;60.28;100640.35;1751445;80;20959;-44
2021/06/02 09:19:39;;;;;;;2.40;1.40;;;;;;;14.45;59.55;100627.69;1717232;81;20959;-44
2021/06/02 09:22:16;;;;;;;3.08;1.20;;;;;;;14.47;59.07;100635.15;1719508;81;20979;-42
2021/06/02 09:25:00;;;;;;;3.08;1.40;;;;;;;14.48;58.30;100633.31;1718628;82;20983;-41
2021/06/02 09:27:57;;;;;;;4.40;1.70;;;;;;;14.50;58.72;100625.53;1710034;83;20932;-42
2021/06/02 09:30:31;;;;;;;3.08;1.35;;;;;;;14.55;59.27;100631.94;1720285;83;20972;-43
2021/06/02 09:33:00;;;;;;;3.62;2.17;;;;;;;14.57;57.71;100631.84;1724350;81;21031;-43
2021/06/02 09:35:38;;;;;;;2.50;1.45;;;;;;;14.57;58.39;100634.03;1717958;81;20953;-44
2021/06/02 09:38:05;;;;;;;4.50;1.47;;;;;;;14.59;58.88;100642.84;1711792;83;21480;-45
2021/06/02 09:40:39;;;;;;;2.85;1.67;;;;;;;14.61;59.22;100636.00;1696899;82;21004;-45
2021/06/02 09:43:06;;;;;;;3.00;2.08;;;;;;;14.61;59.12;100646.23;1700848;82;20992;-44
2021/06/02 09:45:33;;;;;;;5.33;1.62;;;;;;;14.62;58.63;100646.63;1701601;82;20976;-45
2021/06/02 09:48:02;;;;;;;2.87;1.27;;;;;;;14.61;57.95;100644.90;1698228;82;21579;-40
2021/06/02 09:50:32;;;;;;;4.47;2.00;;;;;;;14.62;58.60;100642.61;1694168;82;20980;-41
2021/06/02 09:53:02;;;;;;;4.87;1.95;;;;;;;14.63;57.97;100638.94;1691951;82;21020;-46
2021/06/02 09:55:36;;;;;;;5.95;2.22;;;;;;;14.66;58.32;100640.55;1695608;82;20953;-46
2021/06/02 09:58:12;;;;;;;7.05;1.52;;;;;;;14.69;58.76;100643.87;1694549;82;20989;-45
2021/06/02 10:00:55;;;;;;;2.75;1.35;;;;;;;14.74;57.62;100648.03;1701985;82;20972;-45
2021/06/02 10:03:28;;;;;;;3.45;1.57;;;;;;;14.79;58.46;100651.23;1695917;82;21028;-45
2021/06/02 10:05:52;;;;;;;3.17;1.20;;;;;;;14.84;58.60;100651.75;1699597;82;21000;-43
2021/06/02 10:08:34;;;;;;;3.65;1.75;;;;;;;14.88;58.55;100649.23;1694641;82;21985;-44
2021/06/02 10:11:17;;;;;;;4.05;1.50;;;;;;;14.93;58.33;100647.06;1694399;82;21478;-45
2021/06/02 10:13:46;;;;;;;2.45;1.70;;;;;;;15.00;57.62;100651.01;1690428;84;21610;-42
2021/06/02 10:16:15;;;;;;;4.60;1.45;;;;;;;15.03;57.86;100656.14;1670465;84;21012;-43
2021/06/02 10:18:46;;;;;;;5.97;1.35;;;;;;;15.08;57.83;100645.06;1652935;83;21036;-42
2021/06/02 10:21:14;;;;;;;4.95;1.47;;;;;;;15.12;57.98;100643.38;1701999;82;21019;-45
2021/06/02 10:23:44;;;;;;;2.08;1.17;;;;;;;15.17;58.28;100643.50;1702937;82;20983;-43
2021/06/02 10:28:46;;;;;;;3.70;1.40;;;;;;;15.33;58.18;100644.08;1776349;79;22290;-41
2021/06/02 10:31:15;;;;;;;2.95;1.32;;;;;;;15.34;56.62;100649.31;1774381;79;21696;-43
2021/06/02 10:33:41;;;;;;;3.05;1.17;;;;;;;15.38;55.98;100653.14;1774434;79;22397;-43
2021/06/02 10:36:09;;;;;;;9.35;3.08;;;;;;;15.42;56.04;100651.91;1773563;79;20948;-43
2021/06/02 10:39:09;;;;;;;3.27;1.40;;;;;;;15.45;56.41;100657.08;1768667;79;20984;-43
2021/06/02 10:42:20;;;;;;;4.20;1.07;;;;;;;15.48;56.03;100662.20;1524180;92;21146;-42
2021/06/02 10:44:55;;;;;;;4.42;1.17;;;;;;;15.53;55.26;100662.71;1526410;92;21075;-43
2021/06/02 10:47:24;;;;;;;3.52;1.30;;;;;;;15.56;55.86;100663.81;1479758;96;21024;-42
2021/06/02 10:49:53;;;;;;;4.92;1.25;;;;;;;15.60;55.42;100653.22;1480454;95;21071;-45
2021/06/02 10:52:38;;;;;;;4.42;1.22;;;;;;;15.63;55.68;100658.84;1522774;93;21051;-46
2021/06/02 10:55:43;;;;;;;2.55;1.55;;;;;;;15.69;56.52;100655.66;1519758;93;21043;-46
2021/06/02 10:58:21;;;;;;;2.40;1.30;;;;;;;15.74;56.29;100653.02;1474494;96;21099;-41
2021/06/02 11:00:52;;;;;;;3.55;0.98;;;;;;;15.80;56.54;100658.43;1473807;96;21026;-43
2021/06/02 11:03:32;;;;;;;2.62;1.22;;;;;;;15.87;56.34;100654.75;1472025;96;21061;-43
2021/06/02 11:06:18;;;;;;;3.20;1.40;;;;;;;15.91;55.92;100655.75;1472514;96;21647;-45
2021/06/02 11:08:58;;;;;;;3.33;1.60;;;;;;;15.97;55.23;100662.47;1441766;98;21004;-43
2021/06/02 11:11:43;;;;;;;4.62;1.32;;;;;;;16.03;55.34;100664.70;1442975;98;21582;-44
2021/06/02 11:14:20;;;;;;;1.60;1.10;;;;;;;16.08;56.10;100657.13;1455557;97;21044;-44
2021/06/02 11:16:58;;;;;;;4.75;1.25;;;;;;;16.14;55.89;100660.66;1473186;96;21019;-44
2021/06/02 11:19:35;;;;;;;5.60;1.22;;;;;;;16.19;55.10;100661.64;1521314;90;21020;-44
2021/06/02 11:22:05;;;;;;;4.70;1.50;;;;;;;16.23;54.35;100657.25;1580963;89;21005;-42
2021/06/02 11:24:40;;;;;;;3.80;1.15;;;;;;;16.27;52.84;100665.07;1579135;89;20982;-44
2021/06/02 11:27:17;;;;;;;3.35;0.82;;;;;;;16.29;51.47;100656.39;1581452;89;21034;-45
2021/06/02 11:29:52;;;;;;;;;;;;;;;16.30;51.29;100665.67;1717499;80;20948;-42
2021/06/02 11:32:23;;;;;;;10.72;1.27;;;;;;;16.31;50.60;100660.67;1738658;82;20172;-45
2021/06/02 11:34:55;;;;;;;2.60;1.15;;;;;;;16.32;50.55;100651.61;1741597;80;20991;-43
2021/06/02 11:37:24;;;;;;;5.67;2.15;;;;;;;16.32;49.46;100644.88;1739352;80;21003;-44
2021/06/02 11:39:54;;;;;;;;;;;;;;;16.33;49.04;100653.34;1743999;81;20960;-40
2021/06/02 11:42:42;;;;;;;4.83;0.90;;;;;;;16.35;49.72;100655.39;1739557;82;20412;-41
2021/06/02 11:45:13;;;;;;;2.27;1.17;;;;;;;16.39;50.18;100654.67;1742136;81;20999;-40
2021/06/02 11:47:46;;;;;;;4.08;1.37;;;;;;;16.40;49.63;100662.64;1743111;81;21039;-43
2021/06/02 11:50:15;;;;;;;1.95;1.00;;;;;;;16.42;49.39;100655.27;1735429;80;21031;-45
2021/06/02 11:52:42;;;;;;;1.85;0.88;;;;;;;16.47;50.53;100657.60;1731828;81;20960;-43
2021/06/02 11:55:13;;;;;;;3.15;0.98;;;;;;;16.51;51.63;100658.23;1733987;81;21006;-39
2021/06/02 11:57:44;;;;;;;4.22;1.00;;;;;;;16.56;50.46;100662.25;1732311;80;20963;-44
2021/06/02 12:00:15;;;;;;;7.97;1.15;;;;;;;16.59;50.82;100657.11;1736956;80;20968;-43
2021/06/02 12:02:42;;;;;;;4.40;2.62;;;;;;;16.63;50.94;100654.05;1734748;81;20924;-45
2021/06/02 12:05:19;;;;;;;2.25;1.45;;;;;;;16.66;50.07;100653.80;1732917;80;20992;-44
2021/06/02 12:07:54;;;;;;;2.83;1.30;;;;;;;16.69;49.86;100654.53;1726948;80;20946;-43
2021/06/02 12:10:30;;;;;;;3.42;1.40;;;;;;;16.74;50.44;100656.36;1746368;80;20983;-45
2021/06/02 12:13:00;;;;;;;3.17;1.02;;;;;;;16.76;49.57;100656.60;1742099;80;20947;-44
2021/06/02 12:15:29;;;;;;;2.47;0.90;;;;;;;16.80;48.62;100658.07;1733935;80;21521;-45
2021/06/02 12:17:56;;;;;;;2.47;1.70;;;;;;;16.81;49.10;100657.11;1744371;80;22388;-42
2021/06/02 12:20:24;;;;;;;3.95;1.17;;;;;;;16.84;49.98;100657.35;1740735;80;20979;-42
2021/06/02 12:22:52;;;;;;;3.80;1.05;;;;;;;16.86;50.70;100663.47;1739729;80;20948;-46
2021/06/02 12:25:25;;;;;;;2.12;0.90;;;;;;;16.86;48.98;100652.20;1742718;80;21015;-45